Time;durP1;ratioP1;P1;durP2;ratioP2;P2;SDS_P1;SDS_P2;PMS_P1;PMS_P2;Temp;Humidity;BMP_temperature;BMP_pressure;BME280_temperature;BME280_humidity;BME280_pressure;Samples;Min_cycle;Max_cycle;Signal;HPM_P1;HPM_P2
2023/09/06 00:03:17;;;;;;;;;;;;;;;15.36;71.29;99829.08;232910;216;138621;-62
2023/09/06 00:08:23;;;;;;;15.20;7.60;;;;;;;15.35;71.16;99831.24;232962;216;145716;-62
2023/09/06 00:13:26;;;;;;;12.50;8.30;;;;;;;15.36;71.34;99832.14;232848;216;138584;-65
2023/09/06 00:18:30;;;;;;;10.90;7.60;;;;;;;15.33;71.40;99832.29;232925;216;138160;-64
2023/09/06 00:23:36;;;;;;;11.00;7.50;;;;;;;15.29;71.46;99832.94;233031;216;145537;-63
2023/09/06 00:28:40;;;;;;;15.50;7.20;;;;;;;15.26;71.47;99832.80;232839;216;138674;-63
2023/09/06 00:33:46;;;;;;;;;;;;;;;15.17;71.47;99830.73;232693;215;138350;-64
2023/09/06 00:38:51;;;;;;;10.80;7.30;;;;;;;15.05;71.55;99837.60;232679;214;145876;-63
2023/09/06 00:44:18;;;;;;;13.00;6.90;;;;;;;14.98;71.92;99842.24;232491;214;141078;-60
2023/09/06 00:49:23;;;;;;;10.70;7.40;;;;;;;14.93;72.13;99842.41;232574;214;137897;-61
2023/09/06 00:54:29;;;;;;;10.00;6.70;;;;;;;14.94;72.39;99847.32;232595;214;145696;-63
2023/09/06 00:59:36;;;;;;;14.70;7.70;;;;;;;15.03;72.43;99847.26;232700;214;140380;-61
2023/09/06 01:04:39;;;;;;;12.40;7.90;;;;;;;15.04;72.26;99847.53;232755;214;138281;-62
2023/09/06 01:09:44;;;;;;;14.00;7.90;;;;;;;15.02;72.06;99847.33;232709;214;145713;-61
2023/09/06 01:14:47;;;;;;;12.10;7.20;;;;;;;15.01;72.20;99850.98;232698;214;138952;-62
2023/09/06 01:19:54;;;;;;;;;;;;;;;14.95;72.29;99850.11;232778;214;137695;-60
2023/09/06 01:24:58;;;;;;;11.60;7.10;;;;;;;14.87;72.28;99843.63;232620;214;145733;-61
2023/09/06 01:30:05;;;;;;;12.30;7.50;;;;;;;14.81;72.37;99839.63;232737;214;139420;-60
2023/09/06 01:35:10;;;;;;;13.30;7.00;;;;;;;14.76;72.15;99833.35;232657;214;139269;-62
2023/09/06 01:40:17;;;;;;;13.40;6.80;;;;;;;14.76;72.02;99836.02;232593;214;148267;-63
2023/09/06 01:45:23;;;;;;;15.00;6.70;;;;;;;14.77;71.61;99841.45;232654;214;138959;-62
2023/09/06 01:50:31;;;;;;;11.90;6.60;;;;;;;14.72;71.55;99845.38;232508;214;137527;-61
2023/09/06 01:55:43;;;;;;;10.80;7.20;;;;;;;14.62;71.47;99844.83;232604;214;147561;-61
2023/09/06 02:00:47;;;;;;;10.80;6.30;;;;;;;14.56;71.71;99833.20;232585;214;138874;-60
2023/09/06 02:05:53;;;;;;;12.00;6.60;;;;;;;14.51;71.91;99828.20;232685;214;137412;-60
2023/09/06 02:10:56;;;;;;;11.20;6.50;;;;;;;14.45;71.93;99825.73;232702;214;147563;-60
2023/09/06 02:16:03;;;;;;;12.80;6.50;;;;;;;14.39;71.98;99826.41;232636;214;141638;-59
2023/09/06 02:21:07;;;;;;;11.30;6.80;;;;;;;14.36;72.09;99830.55;232660;214;137740;-60
2023/09/06 02:26:10;;;;;;;11.60;6.50;;;;;;;14.37;72.00;99826.95;232575;214;148068;-65
2023/09/06 02:31:15;;;;;;;14.90;6.90;;;;;;;14.37;71.86;99826.61;232504;214;140903;-65
2023/09/06 02:36:19;;;;;;;15.80;7.10;;;;;;;14.39;71.94;99823.42;232546;214;137800;-62
2023/09/06 02:41:24;;;;;;;15.60;7.20;;;;;;;14.34;72.08;99820.67;232772;214;149538;-63
2023/09/06 02:46:33;;;;;;;11.70;7.10;;;;;;;14.28;72.05;99823.63;232646;214;140817;-65
2023/09/06 02:51:47;;;;;;;11.20;6.80;;;;;;;14.16;72.14;99818.65;232672;214;138054;-62
2023/09/06 02:56:52;;;;;;;12.60;7.10;;;;;;;14.07;72.45;99820.30;232516;214;149497;-63
2023/09/06 03:01:59;;;;;;;12.60;6.90;;;;;;;14.03;72.69;99827.14;232519;214;138825;-62
2023/09/06 03:07:10;;;;;;;9.80;6.60;;;;;;;14.02;72.90;99830.30;232727;214;137726;-62
2023/09/06 03:12:14;;;;;;;11.70;7.10;;;;;;;14.07;72.94;99828.73;232704;214;147429;-62
2023/09/06 03:17:22;;;;;;;13.30;7.50;;;;;;;14.06;72.83;99827.84;232535;214;138899;-61
2023/09/06 03:22:28;;;;;;;11.00;7.20;;;;;;;14.04;72.84;99830.51;232657;214;137932;-60
2023/09/06 03:27:35;;;;;;;11.60;7.30;;;;;;;14.02;72.88;99827.59;232653;214;147334;-62
2023/09/06 03:32:42;;;;;;;10.80;7.30;;;;;;;13.98;73.02;99830.70;232671;214;140837;-60
2023/09/06 03:37:47;;;;;;;13.10;7.20;;;;;;;13.92;73.21;99824.83;232655;214;136990;-60
2023/09/06 03:42:54;;;;;;;13.80;7.40;;;;;;;13.88;73.39;99829.54;232585;214;149220;-59
2023/09/06 03:47:58;;;;;;;12.40;7.50;;;;;;;13.87;73.43;99829.92;232753;214;138724;-60
2023/09/06 03:53:05;;;;;;;11.80;7.80;;;;;;;13.89;73.27;99836.42;232608;214;138075;-57
2023/09/06 03:58:10;;;;;;;14.50;8.10;;;;;;;13.91;72.77;99835.60;232769;214;147415;-60
2023/09/06 04:03:15;;;;;;;15.10;7.30;;;;;;;13.89;72.38;99830.04;232723;214;139003;-63
2023/09/06 04:08:21;;;;;;;;;;;;;;;13.83;72.15;99833.05;232576;214;137257;-61
2023/09/06 04:13:28;;;;;;;14.60;7.10;;;;;;;13.79;71.95;99838.86;232775;214;148526;-61
2023/09/06 04:18:34;;;;;;;11.50;6.90;;;;;;;13.66;72.06;99846.95;232670;214;139235;-61
2023/09/06 04:23:40;;;;;;;14.10;7.60;;;;;;;13.59;72.10;99845.41;232770;214;136920;-62
2023/09/06 04:28:49;;;;;;;13.40;6.70;;;;;;;13.55;72.43;99848.55;232619;214;149440;-64
2023/09/06 04:33:58;;;;;;;17.60;6.70;;;;;;;13.52;72.71;99852.27;232692;214;138733;-62
2023/09/06 04:39:03;;;;;;;13.00;6.70;;;;;;;13.55;72.93;99856.23;232688;214;138680;-60
2023/09/06 04:44:10;;;;;;;10.60;7.30;;;;;;;13.60;73.30;99856.05;232611;214;148403;-61
2023/09/06 04:49:15;;;;;;;13.10;7.50;;;;;;;13.67;73.52;99861.34;232525;214;138876;-63
2023/09/06 04:54:19;;;;;;;77.60;54.90;;;;;;;13.74;73.75;99861.77;232852;214;137454;-61
2023/09/06 04:59:25;;;;;;;24.30;16.20;;;;;;;13.86;73.75;99863.92;232591;214;147620;-61
2023/09/06 05:04:30;;;;;;;33.90;22.80;;;;;;;13.90;73.58;99869.36;232564;214;141386;-62
2023/09/06 05:09:36;;;;;;;21.10;8.30;;;;;;;13.91;73.64;99873.09;232712;214;138618;-60
2023/09/06 05:14:44;;;;;;;13.00;7.00;;;;;;;13.97;73.95;99874.67;232705;214;148150;-64
2023/09/06 05:19:54;;;;;;;12.30;7.60;;;;;;;14.02;73.94;99876.48;232594;214;139469;-58
2023/09/06 05:24:59;;;;;;;12.40;7.90;;;;;;;14.10;74.07;99873.64;232596;214;138071;-61
2023/09/06 05:30:06;;;;;;;420.10;326.70;;;;;;;14.25;74.36;99869.86;232648;214;149024;-60
2023/09/06 05:35:10;;;;;;;21.20;13.70;;;;;;;14.39;74.90;99870.20;232592;214;138846;-60
2023/09/06 05:40:22;;;;;;;13.60;8.80;;;;;;;14.51;74.58;99874.27;232590;215;138415;-58
2023/09/06 05:45:29;;;;;;;9.10;7.10;;;;;;;14.58;74.81;99867.39;232628;214;149017;-60
2023/09/06 05:50:35;;;;;;;14.30;7.70;;;;;;;14.68;75.01;99881.56;232740;215;140812;-61
2023/09/06 05:55:42;;;;;;;15.80;8.20;;;;;;;14.82;75.05;99878.33;232720;214;138267;-60
2023/09/06 06:00:46;;;;;;;;;;;;;;;14.97;74.95;99874.09;232742;214;147546;-60
2023/09/06 06:05:55;;;;;;;28.10;9.00;;;;;;;15.10;74.79;99881.05;232801;214;139436;-60
2023/09/06 06:10:59;;;;;;;35.10;8.40;;;;;;;15.23;74.76;99885.58;232589;214;137529;-61
2023/09/06 06:16:08;;;;;;;53.60;10.80;;;;;;;15.34;74.74;99889.80;232652;214;147558;-60
2023/09/06 06:21:12;;;;;;;74.30;17.50;;;;;;;15.46;74.83;99894.59;232544;214;139038;-62
2023/09/06 06:26:19;;;;;;;35.70;10.00;;;;;;;15.60;74.78;99893.73;232559;214;139458;-62
2023/09/06 06:31:23;;;;;;;21.10;9.10;;;;;;;15.76;74.52;99891.44;232627;214;147698;-63
2023/09/06 06:36:31;;;;;;;16.50;7.60;;;;;;;15.93;74.58;99893.11;232625;214;139720;-61
2023/09/06 06:41:36;;;;;;;22.60;8.20;;;;;;;16.09;74.40;99896.77;232588;214;138368;-60
2023/09/06 06:46:41;;;;;;;19.20;8.50;;;;;;;16.21;74.30;99889.34;232576;214;147692;-61
2023/09/06 06:51:47;;;;;;;15.90;7.50;;;;;;;16.32;74.49;99893.70;232779;214;138902;-61
2023/09/06 06:56:51;;;;;;;15.40;7.10;;;;;;;16.45;74.18;99887.20;232631;214;137895;-59
2023/09/06 07:01:55;;;;;;;14.60;7.40;;;;;;;16.61;73.84;99892.15;232631;214;147483;-59
2023/09/06 07:07:01;;;;;;;13.10;7.60;;;;;;;16.84;73.57;99895.14;232526;214;139016;-60
2023/09/06 07:12:07;;;;;;;19.80;8.70;;;;;;;17.08;73.06;99901.92;232696;214;137672;-60
2023/09/06 07:17:10;;;;;;;37.60;23.90;;;;;;;17.32;72.89;99893.67;232570;214;148429;-59
2023/09/06 07:22:15;;;;;;;38.40;26.90;;;;;;;17.92;72.45;99891.91;232631;214;139735;-59
2023/09/06 07:27:21;;;;;;;28.20;16.60;;;;;;;18.50;70.58;99890.51;232607;214;138428;-58
2023/09/06 07:32:25;;;;;;;16.30;10.10;;;;;;;18.82;68.94;99891.51;232592;214;147632;-59
2023/09/06 07:37:35;;;;;;;18.50;10.00;;;;;;;19.07;68.00;99891.24;232556;214;139559;-59
2023/09/06 07:42:42;;;;;;;18.30;7.50;;;;;;;19.43;66.79;99890.35;232809;214;139800;-59
2023/09/06 07:47:46;;;;;;;18.00;7.80;;;;;;;19.56;65.79;99889.62;232564;214;148720;-58
2023/09/06 07:52:49;;;;;;;13.70;7.50;;;;;;;19.72;65.05;99887.31;232552;214;151696;-57
2023/09/06 07:57:52;;;;;;;10.60;6.80;;;;;;;19.86;64.68;99883.05;232722;214;137847;-58
2023/09/06 08:02:56;;;;;;;14.70;6.70;;;;;;;19.98;64.54;99879.67;232691;214;149145;-59
2023/09/06 08:08:05;;;;;;;11.30;5.70;;;;;;;20.14;64.13;99876.67;232592;214;138988;-60
2023/09/06 08:13:10;;;;;;;12.00;6.30;;;;;;;20.23;63.86;99874.94;232779;214;137863;-57
2023/09/06 08:18:13;;;;;;;332.00;257.70;;;;;;;20.31;63.25;99869.70;232794;214;148182;-58
2023/09/06 08:23:20;;;;;;;26.80;17.50;;;;;;;20.32;62.68;99869.65;232747;214;138680;-59
2023/09/06 08:28:24;;;;;;;19.10;9.90;;;;;;;20.37;62.78;99869.90;232691;214;137546;-58
2023/09/06 08:33:29;;;;;;;18.80;9.10;;;;;;;20.46;62.33;99876.13;232574;214;147478;-58
2023/09/06 08:38:34;;;;;;;12.20;7.40;;;;;;;20.49;62.28;99871.91;232652;214;138261;-58
2023/09/06 08:43:43;;;;;;;20.00;7.80;;;;;;;20.67;62.27;99871.04;232581;214;138020;-58
2023/09/06 08:48:51;;;;;;;13.60;7.40;;;;;;;20.81;61.71;99872.63;232756;214;149129;-61
2023/09/06 08:53:56;;;;;;;24.20;15.60;;;;;;;20.92;61.23;99871.05;232589;214;138717;-60
2023/09/06 08:58:59;;;;;;;14.30;9.00;;;;;;;20.99;60.38;99869.88;232611;214;138332;-59
2023/09/06 09:04:06;;;;;;;12.20;6.30;;;;;;;21.08;59.49;99875.42;232562;214;147797;-59
2023/09/06 09:09:19;;;;;;;13.20;5.90;;;;;;;21.18;58.94;99876.23;232589;214;140298;-59
2023/09/06 09:14:25;;;;;;;15.90;4.80;;;;;;;21.28;57.95;99878.61;232728;214;137941;-58
2023/09/06 09:19:29;;;;;;;8.60;5.10;;;;;;;21.39;57.06;99875.83;232603;214;147700;-59
2023/09/06 09:24:35;;;;;;;8.10;4.70;;;;;;;21.47;55.84;99879.54;232758;214;139169;-59
2023/09/06 09:29:39;;;;;;;10.60;4.80;;;;;;;21.57;55.67;99876.23;232663;214;138103;-60
2023/09/06 09:34:50;;;;;;;9.60;5.10;;;;;;;21.74;54.12;99872.27;232655;214;149838;-61
2023/09/06 09:39:53;;;;;;;19.00;5.80;;;;;;;21.91;53.13;99871.02;232648;214;139064;-62
2023/09/06 09:45:01;;;;;;;12.00;5.50;;;;;;;22.08;53.51;99870.14;232783;214;138202;-61
2023/09/06 09:50:09;;;;;;;14.50;5.40;;;;;;;22.26;53.84;99868.52;232529;214;148159;-59
2023/09/06 09:55:16;;;;;;;10.20;5.50;;;;;;;22.43;53.03;99877.04;232613;214;139246;-60
2023/09/06 10:00:28;;;;;;;13.60;4.80;;;;;;;22.59;51.82;99874.73;232546;214;140429;-59
2023/09/06 10:05:33;;;;;;;11.40;5.70;;;;;;;22.81;50.69;99878.33;232522;214;148117;-59
2023/09/06 10:10:39;;;;;;;17.80;5.40;;;;;;;22.99;50.34;99876.58;232541;214;140003;-60
2023/09/06 10:15:46;;;;;;;10.90;5.00;;;;;;;23.23;50.32;99874.52;232546;214;137820;-60
2023/09/06 10:21:11;;;;;;;14.90;5.90;;;;;;;23.49;50.18;99870.52;232585;214;148190;-59
2023/09/06 10:26:36;;;;;;;14.40;6.30;;;;;;;23.73;49.42;99869.59;232459;214;139794;-59
2023/09/06 10:31:51;;;;;;;17.20;6.80;;;;;;;23.95;50.41;99861.27;232592;214;137206;-60
2023/09/06 10:36:58;;;;;;;10.70;5.30;;;;;;;24.12;50.20;99860.05;232791;214;147613;-58
2023/09/06 10:42:08;;;;;;;12.00;5.40;;;;;;;24.28;49.47;99854.70;232581;214;140398;-59
2023/09/06 10:47:34;;;;;;;8.60;4.70;;;;;;;24.42;49.19;99847.23;232611;214;138956;-60
2023/09/06 10:52:49;;;;;;;5.40;4.10;;;;;;;24.54;48.48;99847.77;232639;214;149444;-59
2023/09/06 10:57:56;;;;;;;;;;;;;;;24.71;48.17;99847.08;232688;214;143456;-59
2023/09/06 11:03:04;;;;;;;9.70;4.40;;;;;;;24.80;47.70;99842.80;232753;214;132897;-59
2023/09/06 11:08:10;;;;;;;5.60;3.90;;;;;;;24.91;47.35;99842.70;232561;214;147617;-60
2023/09/06 11:13:19;;;;;;;7.10;4.00;;;;;;;25.08;46.50;99842.70;232744;214;138931;-60
2023/09/06 11:18:32;;;;;;;5.00;3.70;;;;;;;25.19;46.02;99837.39;232525;214;138437;-60
2023/09/06 11:23:48;;;;;;;4.40;3.50;;;;;;;25.36;45.37;99841.56;232607;214;147844;-61
2023/09/06 11:29:03;;;;;;;4.70;3.00;;;;;;;25.55;44.06;99829.13;232561;214;139334;-61
2023/09/06 11:34:11;;;;;;;3.70;2.90;;;;;;;25.71;43.49;99830.53;232663;214;138064;-61
2023/09/06 11:39:18;;;;;;;4.40;3.30;;;;;;;25.91;42.46;99827.06;232641;214;148220;-60
2023/09/06 11:44:23;;;;;;;4.40;3.20;;;;;;;26.10;41.87;99819.41;232515;214;138924;-59
2023/09/06 11:49:28;;;;;;;8.90;3.80;;;;;;;26.39;42.17;99816.11;232655;214;137231;-60
2023/09/06 11:54:39;;;;;;;5.10;3.10;;;;;;;26.59;41.64;99819.14;232546;214;147452;-59
2023/09/06 11:59:43;;;;;;;5.60;3.30;;;;;;;26.79;40.87;99818.91;232447;214;139404;-59
2023/09/06 12:05:11;;;;;;;5.70;3.00;;;;;;;27.02;40.22;99817.60;232610;214;141380;-59
2023/09/06 12:10:23;;;;;;;4.70;3.10;;;;;;;27.26;38.69;99816.92;232579;214;147326;-60
2023/09/06 12:15:28;;;;;;;3.30;3.00;;;;;;;27.45;38.55;99811.97;232673;214;139621;-60
2023/09/06 12:20:42;;;;;;;6.00;3.50;;;;;;;27.63;39.02;99807.04;232701;214;137158;-60
2023/09/06 12:25:47;;;;;;;21.20;17.20;;;;;;;27.86;39.20;99808.94;232676;214;147778;-61
2023/09/06 12:30:58;;;;;;;5.90;3.70;;;;;;;28.00;38.47;99803.84;232684;214;139692;-59
2023/09/06 12:36:05;;;;;;;4.80;3.00;;;;;;;28.05;37.75;99803.84;232614;214;137857;-59
2023/09/06 12:41:12;;;;;;;4.90;3.20;;;;;;;28.06;36.98;99795.91;232599;214;149351;-59
2023/09/06 12:46:18;;;;;;;4.80;3.60;;;;;;;28.16;36.40;99793.73;232510;214;138976;-60
2023/09/06 12:51:23;;;;;;;5.70;3.40;;;;;;;28.23;35.85;99788.86;232573;214;138085;-59
2023/09/06 12:56:35;;;;;;;5.40;3.40;;;;;;;28.38;35.96;99789.40;232622;214;148310;-59
2023/09/06 13:02:06;;;;;;;4.20;3.20;;;;;;;28.56;35.39;99784.27;232749;214;138875;-60
2023/09/06 13:07:17;;;;;;;5.60;3.80;;;;;;;28.54;34.61;99774.67;232659;214;136916;-57
2023/09/06 13:12:21;;;;;;;5.20;3.70;;;;;;;28.65;35.22;99776.19;232591;214;148193;-59
2023/09/06 13:17:26;;;;;;;4.60;3.50;;;;;;;28.77;35.54;99771.90;232601;214;140693;-59
2023/09/06 13:22:34;;;;;;;4.80;3.60;;;;;;;28.91;35.90;99765.34;232578;214;141159;-60
2023/09/06 13:27:39;;;;;;;7.40;3.50;;;;;;;29.03;35.56;99765.81;232527;214;147524;-59
2023/09/06 13:32:43;;;;;;;;;;;;;;;29.13;34.66;99762.82;232522;214;138901;-60
2023/09/06 13:37:49;;;;;;;8.80;6.40;;;;;;;29.20;34.38;99758.59;232719;214;132916;-59
2023/09/06 13:42:53;;;;;;;;;;;;;;;29.20;33.68;99753.39;232556;214;147658;-61
2023/09/06 13:48:16;;;;;;;5.60;3.70;;;;;;;29.25;33.08;99745.80;232714;214;139312;-59
2023/09/06 13:53:21;;;;;;;6.20;4.50;;;;;;;29.32;33.36;99738.52;232663;214;138221;-60
2023/09/06 13:58:26;;;;;;;18.30;10.60;;;;;;;29.33;33.60;99731.93;232528;214;147911;-60
2023/09/06 14:03:32;;;;;;;10.10;4.20;;;;;;;29.23;33.81;99729.08;232585;214;138779;-59
2023/09/06 14:08:38;;;;;;;6.40;3.90;;;;;;;28.99;34.31;99723.97;232589;214;138446;-60
2023/09/06 14:13:43;;;;;;;9.50;4.50;;;;;;;28.57;34.99;99727.34;232662;214;147603;-59
2023/09/06 14:18:48;;;;;;;8.40;3.80;;;;;;;28.06;35.55;99722.57;232395;214;139142;-61
2023/09/06 14:23:54;;;;;;;5.80;3.50;;;;;;;27.54;36.40;99725.50;232621;214;137772;-59
2023/09/06 14:28:58;;;;;;;5.30;4.20;;;;;;;27.08;36.92;99724.69;232603;214;147456;-62
2023/09/06 14:34:04;;;;;;;6.60;4.20;;;;;;;26.75;37.47;99719.77;232533;214;140846;-59
2023/09/06 14:39:07;;;;;;;7.30;3.50;;;;;;;26.43;38.20;99717.62;232630;214;136830;-62
2023/09/06 14:44:15;;;;;;;7.30;4.20;;;;;;;26.18;38.81;99716.19;232505;214;147572;-61
2023/09/06 14:49:20;;;;;;;9.40;3.80;;;;;;;25.97;39.19;99718.11;232618;214;139382;-60
2023/09/06 14:54:24;;;;;;;10.10;4.10;;;;;;;25.79;39.46;99713.43;232704;214;137778;-58
2023/09/06 14:59:29;;;;;;;7.10;4.00;;;;;;;25.61;39.12;99715.69;232538;214;147379;-59
2023/09/06 15:04:37;;;;;;;7.20;3.70;;;;;;;25.46;39.79;99715.56;232593;214;139509;-61
2023/09/06 15:09:40;;;;;;;5.40;3.80;;;;;;;25.34;39.80;99719.56;232620;214;137451;-62
2023/09/06 15:14:48;;;;;;;7.40;4.40;;;;;;;25.18;40.02;99715.80;232589;214;148965;-61
2023/09/06 15:19:53;;;;;;;;;;;;;;;25.07;40.61;99717.32;232710;214;138802;-61
2023/09/06 15:24:59;;;;;;;6.90;4.10;;;;;;;24.92;41.59;99718.25;232639;214;132922;-61
2023/09/06 15:30:05;;;;;;;5.50;3.80;;;;;;;24.81;42.20;99719.03;232644;214;147316;-61
2023/09/06 15:35:12;;;;;;;5.60;3.70;;;;;;;24.72;42.53;99723.63;232619;214;138793;-62
2023/09/06 15:40:15;;;;;;;8.30;4.30;;;;;;;24.60;42.30;99723.45;232742;214;137053;-61
2023/09/06 15:45:20;;;;;;;6.10;4.00;;;;;;;24.52;42.10;99731.67;232618;214;148276;-59
2023/09/06 15:50:28;;;;;;;20.60;13.30;;;;;;;24.43;43.27;99730.84;232460;214;139747;-62
2023/09/06 15:55:32;;;;;;;6.20;4.90;;;;;;;24.31;44.19;99728.70;232830;214;138673;-61
2023/09/06 16:00:37;;;;;;;9.80;3.90;;;;;;;24.19;44.15;99730.36;232576;214;146628;-63
2023/09/06 16:05:41;;;;;;;6.50;4.00;;;;;;;24.11;44.45;99731.94;232668;214;138734;-61
2023/09/06 16:10:51;;;;;;;7.90;4.60;;;;;;;24.01;44.87;99733.21;232680;214;137039;-60
2023/09/06 16:15:55;;;;;;;7.80;4.20;;;;;;;23.90;45.12;99732.95;232645;214;148021;-60
2023/09/06 16:21:06;;;;;;;8.70;3.60;;;;;;;23.81;45.34;99736.18;232582;214;139740;-61
2023/09/06 16:26:10;;;;;;;10.50;3.80;;;;;;;23.75;45.47;99735.65;232611;214;137094;-59
2023/09/06 16:31:14;;;;;;;10.60;4.30;;;;;;;23.67;45.64;99736.49;232641;214;147598;-61
2023/09/06 16:36:22;;;;;;;342.00;270.30;;;;;;;23.59;45.67;99736.52;232695;214;150111;-61
2023/09/06 16:41:25;;;;;;;37.30;22.20;;;;;;;23.58;45.63;99746.13;232690;214;138202;-59
2023/09/06 16:46:35;;;;;;;16.30;9.50;;;;;;;23.52;45.86;99746.40;232585;214;147582;-59
2023/09/06 16:51:41;;;;;;;12.30;6.30;;;;;;;23.44;46.20;99749.71;232647;214;138611;-62
2023/09/06 16:56:47;;;;;;;15.70;6.50;;;;;;;23.36;46.58;99750.40;232589;214;137680;-63
2023/09/06 17:01:51;;;;;;;7.30;4.60;;;;;;;23.24;46.56;99748.96;232796;214;147228;-59
2023/09/06 17:06:56;;;;;;;;;;;;;;;23.11;46.88;99748.61;232690;215;139119;-61
2023/09/06 17:12:01;;;;;;;8.50;3.80;;;;;;;22.97;47.15;99750.23;232882;215;132926;-60
2023/09/06 17:17:07;;;;;;;12.30;4.20;;;;;;;22.82;48.37;99756.05;232917;216;147402;-59
2023/09/06 17:22:12;;;;;;;7.20;4.30;;;;;;;22.73;49.13;99755.51;232915;216;141157;-59
2023/09/06 17:27:18;;;;;;;8.10;4.20;;;;;;;22.66;49.66;99758.23;232796;216;137391;-60
2023/09/06 17:32:25;;;;;;;661.00;485.70;;;;;;;22.60;49.78;99763.39;232786;216;147686;-62
2023/09/06 17:37:31;;;;;;;43.10;31.10;;;;;;;22.48;50.92;99775.45;232740;216;140408;-59
2023/09/06 17:42:35;;;;;;;20.90;13.00;;;;;;;22.36;51.02;99782.06;232789;216;139754;-60
2023/09/06 17:47:41;;;;;;;8.20;5.90;;;;;;;22.26;51.53;99788.10;232897;216;147649;-58
2023/09/06 17:52:49;;;;;;;66.80;55.30;;;;;;;22.14;51.51;99797.02;232786;216;139467;-58
2023/09/06 17:57:54;;;;;;;10.80;6.40;;;;;;;21.98;51.72;99797.01;233166;216;137545;-60
2023/09/06 18:02:59;;;;;;;11.10;5.50;;;;;;;21.81;52.34;99802.29;232967;216;149439;-58
2023/09/06 18:08:10;;;;;;;;;;;;;;;21.65;52.82;99810.84;232843;216;140184;-58
2023/09/06 18:13:19;;;;;;;17.20;8.10;;;;;;;21.46;53.30;99812.42;232891;216;132987;-59
2023/09/06 18:18:24;;;;;;;;;;;;;;;21.32;53.91;99811.95;232858;216;148941;-59
2023/09/06 18:23:35;;;;;;;20.20;10.10;;;;;;;21.19;54.39;99809.58;232873;216;138774;-62
2023/09/06 18:28:40;;;;;;;19.00;9.20;;;;;;;21.07;54.60;99815.61;232873;216;137781;-62
2023/09/06 18:33:45;;;;;;;19.00;10.50;;;;;;;20.92;55.44;99824.19;233049;216;147503;-61
2023/09/06 18:38:49;;;;;;;20.80;10.00;;;;;;;20.79;55.82;99830.81;232892;216;141854;-61
2023/09/06 18:43:54;;;;;;;17.20;9.90;;;;;;;20.66;56.36;99830.42;232941;216;138459;-61
2023/09/06 18:48:58;;;;;;;20.20;10.70;;;;;;;20.53;56.98;99822.16;232853;216;147543;-61
2023/09/06 18:54:03;;;;;;;19.80;11.50;;;;;;;20.40;57.30;99817.40;232788;216;141312;-60
2023/09/06 18:59:08;;;;;;;18.30;10.80;;;;;;;20.29;57.85;99822.37;232960;216;139028;-61
2023/09/06 19:04:13;;;;;;;20.40;12.40;;;;;;;20.19;58.48;99828.66;232978;216;147353;-63
2023/09/06 19:09:21;;;;;;;17.40;11.10;;;;;;;20.07;59.10;99831.53;232875;216;138833;-62
2023/09/06 19:14:25;;;;;;;21.90;10.70;;;;;;;19.96;59.11;99828.02;232905;216;137129;-59
2023/09/06 19:19:32;;;;;;;236.00;165.60;;;;;;;19.85;59.77;99829.89;232891;216;147718;-62
2023/09/06 19:24:40;;;;;;;32.30;20.90;;;;;;;19.81;60.19;99825.69;232810;216;139158;-60
2023/09/06 19:29:55;;;;;;;22.90;12.30;;;;;;;19.74;60.74;99820.23;232870;216;138342;-61
2023/09/06 19:34:58;;;;;;;19.90;11.40;;;;;;;19.61;61.36;99829.58;232884;216;149482;-61
2023/09/06 21:45:29;;;;;;;18.10;10.40;;;;;;;17.93;67.03;99846.80;231550;223;698446;-58
2023/09/06 21:50:39;;;;;;;18.60;10.40;;;;;;;17.82;67.03;99850.02;232353;219;137202;-61
2023/09/06 21:55:43;;;;;;;21.10;10.80;;;;;;;17.70;67.53;99856.48;232580;218;145046;-57
2023/09/06 22:00:49;;;;;;;;;;;;;;;17.59;67.90;99860.06;232588;218;140388;-59
2023/09/06 22:06:15;;;;;;;20.20;11.00;;;;;;;17.46;68.13;99861.40;233115;216;129526;-60
2023/09/06 22:11:43;;;;;;;17.40;9.90;;;;;;;17.32;68.61;99873.20;233110;216;144254;-61
2023/09/06 22:16:47;;;;;;;20.40;10.10;;;;;;;17.23;68.67;99876.62;233090;216;138898;-60
2023/09/06 22:21:53;;;;;;;18.30;10.20;;;;;;;17.19;68.96;99884.11;233003;216;137197;-58
2023/09/06 22:26:56;;;;;;;17.10;10.30;;;;;;;17.15;69.02;99886.19;232990;216;143729;-60
2023/09/06 22:31:59;;;;;;;18.30;10.40;;;;;;;17.08;69.15;99884.43;232884;215;258931;-64
2023/09/06 22:37:05;;;;;;;16.50;9.90;;;;;;;16.99;69.12;99887.78;232812;215;137489;-60
2023/09/06 22:42:11;;;;;;;;;;;;;;;16.90;69.18;99892.02;232742;215;145766;-60
2023/09/06 22:47:15;;;;;;;18.60;11.40;;;;;;;16.79;69.47;99892.50;232837;215;138973;-59
2023/09/06 22:52:21;;;;;;;19.60;10.90;;;;;;;16.67;69.76;99887.95;232941;215;137991;-58
2023/09/06 22:57:26;;;;;;;18.60;10.50;;;;;;;16.58;69.88;99890.04;232814;215;146610;-59
2023/09/06 23:04:24;;;;;;;17.30;9.60;;;;;;;16.50;70.28;99896.03;231347;224;723834;-63
2023/09/06 23:09:29;;;;;;;18.50;9.50;;;;;;;16.45;70.46;99893.35;232785;218;137066;-59
2023/09/06 23:14:36;;;;;;;17.90;9.40;;;;;;;16.45;70.53;99891.16;232728;217;143853;-59
2023/09/06 23:19:44;;;;;;;14.10;9.50;;;;;;;16.46;70.59;99895.01;232737;217;138989;-60
2023/09/06 23:24:51;;;;;;;18.70;10.00;;;;;;;16.44;70.59;99893.19;232532;218;137876;-59
2023/09/06 23:30:07;;;;;;;15.60;9.10;;;;;;;16.42;70.76;99891.80;233034;216;144361;-60
2023/09/06 23:35:21;;;;;;;17.60;10.10;;;;;;;16.35;70.86;99892.77;233074;216;138590;-58
2023/09/06 23:40:29;;;;;;;19.00;10.00;;;;;;;16.28;70.98;99898.98;233052;216;137058;-58
2023/09/06 23:45:44;;;;;;;16.30;10.10;;;;;;;16.21;71.06;99896.13;232979;216;143761;-58
2023/09/06 23:50:51;;;;;;;14.10;9.20;;;;;;;16.13;71.08;99899.24;232853;215;141785;-60
2023/09/06 23:55:57;;;;;;;14.10;9.50;;;;;;;16.05;71.19;99901.38;232584;214;137665;-60
